sensor_id;sensor_type;location;lat;lon;timestamp;P1;durP1;ratioP1;P2;durP2;ratioP2
14738;SDS011;7461;52.440;13.540;2023-12-07T00:00:48;36.60;;;33.20;;
14738;SDS011;7461;52.440;13.540;2023-12-07T00:03:18;33.85;;;30.67;;
14738;SDS011;7461;52.440;13.540;2023-12-07T00:05:45;35.13;;;31.83;;
14738;SDS011;7461;52.440;13.540;2023-12-07T00:08:13;35.97;;;32.80;;
14738;SDS011;7461;52.440;13.540;2023-12-07T00:10:42;33.47;;;30.02;;
14738;SDS011;7461;52.440;13.540;2023-12-07T00:13:09;37.15;;;33.42;;
14738;SDS011;7461;52.440;13.540;2023-12-07T00:15:37;36.97;;;33.05;;
14738;SDS011;7461;52.440;13.540;2023-12-07T00:18:05;38.58;;;34.67;;
14738;SDS011;7461;52.440;13.540;2023-12-07T00:20:33;36.65;;;32.97;;
14738;SDS011;7461;52.440;13.540;2023-12-07T00:23:00;34.42;;;31.27;;
14738;SDS011;7461;52.440;13.540;2023-12-07T00:25:28;35.55;;;32.22;;
14738;SDS011;7461;52.440;13.540;2023-12-07T00:27:57;34.55;;;31.40;;
14738;SDS011;7461;52.440;13.540;2023-12-07T00:30:25;36.30;;;32.97;;
14738;SDS011;7461;52.440;13.540;2023-12-07T00:32:52;37.15;;;33.13;;
14738;SDS011;7461;52.440;13.540;2023-12-07T00:35:20;33.35;;;30.20;;
14738;SDS011;7461;52.440;13.540;2023-12-07T00:37:48;35.33;;;32.05;;
14738;SDS011;7461;52.440;13.540;2023-12-07T00:40:16;36.20;;;32.78;;
14738;SDS011;7461;52.440;13.540;2023-12-07T00:42:43;38.35;;;34.55;;
14738;SDS011;7461;52.440;13.540;2023-12-07T00:45:13;36.40;;;32.92;;
14738;SDS011;7461;52.440;13.540;2023-12-07T00:47:40;36.13;;;32.80;;
14738;SDS011;7461;52.440;13.540;2023-12-07T00:50:11;33.85;;;30.90;;
14738;SDS011;7461;52.440;13.540;2023-12-07T00:52:39;34.55;;;31.55;;
14738;SDS011;7461;52.440;13.540;2023-12-07T00:55:07;38.15;;;34.85;;
14738;SDS011;7461;52.440;13.540;2023-12-07T00:57:37;35.78;;;32.63;;
14738;SDS011;7461;52.440;13.540;2023-12-07T01:00:06;39.63;;;36.08;;
14738;SDS011;7461;52.440;13.540;2023-12-07T01:02:36;33.88;;;30.67;;
14738;SDS011;7461;52.440;13.540;2023-12-07T01:05:04;34.78;;;31.55;;
14738;SDS011;7461;52.440;13.540;2023-12-07T01:07:37;36.03;;;32.92;;
14738;SDS011;7461;52.440;13.540;2023-12-07T01:10:05;34.65;;;31.58;;
14738;SDS011;7461;52.440;13.540;2023-12-07T01:12:54;33.03;;;30.27;;
14738;SDS011;7461;52.440;13.540;2023-12-07T01:15:24;36.75;;;32.85;;
14738;SDS011;7461;52.440;13.540;2023-12-07T01:18:06;34.88;;;31.42;;
14738;SDS011;7461;52.440;13.540;2023-12-07T01:20:33;32.72;;;29.90;;
14738;SDS011;7461;52.440;13.540;2023-12-07T01:23:00;35.63;;;31.98;;
14738;SDS011;7461;52.440;13.540;2023-12-07T01:25:33;34.22;;;30.92;;
14738;SDS011;7461;52.440;13.540;2023-12-07T01:28:04;35.05;;;31.83;;
14738;SDS011;7461;52.440;13.540;2023-12-07T01:30:36;35.95;;;32.42;;
14738;SDS011;7461;52.440;13.540;2023-12-07T01:33:05;36.08;;;32.65;;
14738;SDS011;7461;52.440;13.540;2023-12-07T01:35:35;35.25;;;32.10;;
14738;SDS011;7461;52.440;13.540;2023-12-07T01:38:02;33.97;;;30.75;;
14738;SDS011;7461;52.440;13.540;2023-12-07T01:40:30;36.75;;;33.15;;
14738;SDS011;7461;52.440;13.540;2023-12-07T01:43:00;36.42;;;32.67;;
14738;SDS011;7461;52.440;13.540;2023-12-07T01:45:50;35.22;;;31.90;;
14738;SDS011;7461;52.440;13.540;2023-12-07T01:48:21;38.22;;;34.95;;
14738;SDS011;7461;52.440;13.540;2023-12-07T01:50:49;34.50;;;31.15;;
14738;SDS011;7461;52.440;13.540;2023-12-07T01:53:16;34.78;;;31.67;;
14738;SDS011;7461;52.440;13.540;2023-12-07T01:58:16;36.22;;;33.17;;
14738;SDS011;7461;52.440;13.540;2023-12-07T02:00:56;35.13;;;31.60;;
14738;SDS011;7461;52.440;13.540;2023-12-07T02:03:27;35.10;;;31.80;;
14738;SDS011;7461;52.440;13.540;2023-12-07T02:05:55;36.05;;;32.75;;
14738;SDS011;7461;52.440;13.540;2023-12-07T02:08:23;35.58;;;32.38;;
14738;SDS011;7461;52.440;13.540;2023-12-07T02:10:50;35.67;;;32.35;;
14738;SDS011;7461;52.440;13.540;2023-12-07T02:13:18;36.13;;;32.33;;
14738;SDS011;7461;52.440;13.540;2023-12-07T02:15:46;37.83;;;34.25;;
14738;SDS011;7461;52.440;13.540;2023-12-07T02:18:16;37.05;;;33.58;;
14738;SDS011;7461;52.440;13.540;2023-12-07T02:20:47;37.75;;;33.90;;
14738;SDS011;7461;52.440;13.540;2023-12-07T02:23:17;38.72;;;34.97;;
14738;SDS011;7461;52.440;13.540;2023-12-07T02:25:45;35.78;;;32.50;;
14738;SDS011;7461;52.440;13.540;2023-12-07T02:28:16;38.85;;;34.85;;
14738;SDS011;7461;52.440;13.540;2023-12-07T02:30:44;36.03;;;32.67;;
14738;SDS011;7461;52.440;13.540;2023-12-07T02:33:11;37.78;;;33.50;;
14738;SDS011;7461;52.440;13.540;2023-12-07T02:35:40;40.17;;;36.08;;
14738;SDS011;7461;52.440;13.540;2023-12-07T02:38:08;37.65;;;33.15;;
14738;SDS011;7461;52.440;13.540;2023-12-07T02:40:36;36.88;;;33.45;;
14738;SDS011;7461;52.440;13.540;2023-12-07T02:43:04;39.85;;;35.85;;
14738;SDS011;7461;52.440;13.540;2023-12-07T02:45:33;36.10;;;32.95;;
14738;SDS011;7461;52.440;13.540;2023-12-07T02:48:00;34.67;;;31.35;;
14738;SDS011;7461;52.440;13.540;2023-12-07T02:50:28;36.67;;;33.00;;
14738;SDS011;7461;52.440;13.540;2023-12-07T02:52:55;37.38;;;33.85;;
14738;SDS011;7461;52.440;13.540;2023-12-07T02:55:23;38.58;;;34.55;;
14738;SDS011;7461;52.440;13.540;2023-12-07T02:57:50;36.05;;;32.85;;
14738;SDS011;7461;52.440;13.540;2023-12-07T03:00:17;34.58;;;31.52;;
14738;SDS011;7461;52.440;13.540;2023-12-07T03:02:48;36.75;;;33.42;;
14738;SDS011;7461;52.440;13.540;2023-12-07T03:05:16;35.13;;;31.83;;
14738;SDS011;7461;52.440;13.540;2023-12-07T03:07:45;35.13;;;31.83;;
14738;SDS011;7461;52.440;13.540;2023-12-07T03:10:12;37.72;;;34.15;;
14738;SDS011;7461;52.440;13.540;2023-12-07T03:12:40;37.60;;;34.10;;
14738;SDS011;7461;52.440;13.540;2023-12-07T03:15:07;39.47;;;36.05;;
14738;SDS011;7461;52.440;13.540;2023-12-07T03:17:35;38.47;;;34.95;;
14738;SDS011;7461;52.440;13.540;2023-12-07T03:20:04;38.10;;;34.65;;
14738;SDS011;7461;52.440;13.540;2023-12-07T03:22:32;38.92;;;35.55;;
14738;SDS011;7461;52.440;13.540;2023-12-07T03:25:00;37.75;;;34.17;;
14738;SDS011;7461;52.440;13.540;2023-12-07T03:27:27;38.75;;;35.13;;
14738;SDS011;7461;52.440;13.540;2023-12-07T03:29:55;36.55;;;32.97;;
14738;SDS011;7461;52.440;13.540;2023-12-07T03:32:22;36.03;;;32.65;;
14738;SDS011;7461;52.440;13.540;2023-12-07T03:34:49;38.55;;;35.05;;
14738;SDS011;7461;52.440;13.540;2023-12-07T03:37:18;34.97;;;31.70;;
14738;SDS011;7461;52.440;13.540;2023-12-07T03:39:45;35.40;;;32.13;;
14738;SDS011;7461;52.440;13.540;2023-12-07T03:42:13;37.30;;;34.05;;
14738;SDS011;7461;52.440;13.540;2023-12-07T03:44:40;35.67;;;32.45;;
14738;SDS011;7461;52.440;13.540;2023-12-07T03:47:09;38.50;;;34.90;;
14738;SDS011;7461;52.440;13.540;2023-12-07T03:49:35;35.58;;;32.35;;
14738;SDS011;7461;52.440;13.540;2023-12-07T03:52:04;36.80;;;33.45;;
14738;SDS011;7461;52.440;13.540;2023-12-07T03:54:32;36.92;;;33.47;;
14738;SDS011;7461;52.440;13.540;2023-12-07T03:57:00;41.13;;;37.00;;
14738;SDS011;7461;52.440;13.540;2023-12-07T03:59:27;36.55;;;33.33;;
14738;SDS011;7461;52.440;13.540;2023-12-07T04:01:55;38.53;;;34.92;;
14738;SDS011;7461;52.440;13.540;2023-12-07T04:04:22;36.30;;;33.13;;
14738;SDS011;7461;52.440;13.540;2023-12-07T04:06:50;38.50;;;35.00;;
14738;SDS011;7461;52.440;13.540;2023-12-07T04:09:17;36.17;;;32.92;;
14738;SDS011;7461;52.440;13.540;2023-12-07T04:11:46;39.97;;;36.00;;
14738;SDS011;7461;52.440;13.540;2023-12-07T04:14:13;41.85;;;37.90;;
14738;SDS011;7461;52.440;13.540;2023-12-07T04:16:41;36.08;;;32.63;;
14738;SDS011;7461;52.440;13.540;2023-12-07T04:19:08;39.58;;;35.92;;
14738;SDS011;7461;52.440;13.540;2023-12-07T04:21:35;41.63;;;37.75;;
14738;SDS011;7461;52.440;13.540;2023-12-07T04:24:03;40.92;;;36.83;;
14738;SDS011;7461;52.440;13.540;2023-12-07T04:26:30;36.20;;;32.72;;
14738;SDS011;7461;52.440;13.540;2023-12-07T04:28:59;41.70;;;37.85;;
14738;SDS011;7461;52.440;13.540;2023-12-07T04:31:26;38.80;;;34.83;;
14738;SDS011;7461;52.440;13.540;2023-12-07T04:33:56;39.45;;;35.65;;
14738;SDS011;7461;52.440;13.540;2023-12-07T04:36:24;41.95;;;37.42;;
14738;SDS011;7461;52.440;13.540;2023-12-07T04:38:51;41.58;;;37.30;;
14738;SDS011;7461;52.440;13.540;2023-12-07T04:41:19;42.40;;;38.35;;
14738;SDS011;7461;52.440;13.540;2023-12-07T04:43:46;39.08;;;35.03;;
14738;SDS011;7461;52.440;13.540;2023-12-07T04:46:15;40.47;;;36.42;;
14738;SDS011;7461;52.440;13.540;2023-12-07T04:48:42;41.90;;;37.95;;
14738;SDS011;7461;52.440;13.540;2023-12-07T04:51:10;42.17;;;37.80;;
14738;SDS011;7461;52.440;13.540;2023-12-07T04:53:38;40.95;;;36.90;;
14738;SDS011;7461;52.440;13.540;2023-12-07T04:56:06;41.58;;;37.60;;
14738;SDS011;7461;52.440;13.540;2023-12-07T04:58:33;38.13;;;34.55;;
14738;SDS011;7461;52.440;13.540;2023-12-07T05:01:01;42.03;;;37.95;;
14738;SDS011;7461;52.440;13.540;2023-12-07T05:03:31;41.55;;;37.63;;
14738;SDS011;7461;52.440;13.540;2023-12-07T05:05:58;42.63;;;38.10;;
14738;SDS011;7461;52.440;13.540;2023-12-07T05:08:26;40.15;;;36.20;;
14738;SDS011;7461;52.440;13.540;2023-12-07T05:10:53;39.80;;;35.80;;
14738;SDS011;7461;52.440;13.540;2023-12-07T05:13:20;41.75;;;37.55;;
14738;SDS011;7461;52.440;13.540;2023-12-07T05:15:48;40.17;;;36.17;;
14738;SDS011;7461;52.440;13.540;2023-12-07T05:18:15;42.60;;;38.25;;
14738;SDS011;7461;52.440;13.540;2023-12-07T05:20:44;40.80;;;36.70;;
14738;SDS011;7461;52.440;13.540;2023-12-07T05:23:11;40.40;;;36.22;;
14738;SDS011;7461;52.440;13.540;2023-12-07T05:25:38;43.90;;;39.20;;
14738;SDS011;7461;52.440;13.540;2023-12-07T05:28:06;39.15;;;35.38;;
14738;SDS011;7461;52.440;13.540;2023-12-07T05:30:33;41.72;;;37.25;;
14738;SDS011;7461;52.440;13.540;2023-12-07T05:33:01;41.55;;;37.28;;
14738;SDS011;7461;52.440;13.540;2023-12-07T05:35:28;44.85;;;40.00;;
14738;SDS011;7461;52.440;13.540;2023-12-07T05:38:03;40.83;;;36.70;;
14738;SDS011;7461;52.440;13.540;2023-12-07T05:40:40;43.47;;;39.00;;
14738;SDS011;7461;52.440;13.540;2023-12-07T05:43:23;41.40;;;36.90;;
14738;SDS011;7461;52.440;13.540;2023-12-07T05:46:01;40.38;;;35.92;;
14738;SDS011;7461;52.440;13.540;2023-12-07T05:48:32;42.22;;;38.10;;
14738;SDS011;7461;52.440;13.540;2023-12-07T05:51:05;39.70;;;35.95;;
14738;SDS011;7461;52.440;13.540;2023-12-07T05:56:26;42.00;;;37.50;;
14738;SDS011;7461;52.440;13.540;2023-12-07T05:58:59;43.58;;;39.25;;
14738;SDS011;7461;52.440;13.540;2023-12-07T06:01:51;41.38;;;37.15;;
14738;SDS011;7461;52.440;13.540;2023-12-07T06:07:58;45.78;;;40.03;;
14738;SDS011;7461;52.440;13.540;2023-12-07T06:13:24;44.63;;;39.78;;
14738;SDS011;7461;52.440;13.540;2023-12-07T06:16:16;41.90;;;37.45;;
14738;SDS011;7461;52.440;13.540;2023-12-07T08:30:02;47.50;;;39.03;;
14738;SDS011;7461;52.440;13.540;2023-12-07T08:42:18;49.33;;;40.25;;
14738;SDS011;7461;52.440;13.540;2023-12-07T09:43:42;51.30;;;42.58;;
14738;SDS011;7461;52.440;13.540;2023-12-07T09:46:26;48.05;;;40.97;;
14738;SDS011;7461;52.440;13.540;2023-12-07T09:48:55;50.00;;;42.22;;
14738;SDS011;7461;52.440;13.540;2023-12-07T09:51:29;52.13;;;39.45;;
14738;SDS011;7461;52.440;13.540;2023-12-07T09:53:58;55.58;;;46.70;;
14738;SDS011;7461;52.440;13.540;2023-12-07T09:56:34;51.92;;;44.15;;
14738;SDS011;7461;52.440;13.540;2023-12-07T09:59:11;50.28;;;44.65;;
14738;SDS011;7461;52.440;13.540;2023-12-07T10:01:49;57.72;;;45.28;;
14738;SDS011;7461;52.440;13.540;2023-12-07T10:04:35;50.80;;;42.10;;
14738;SDS011;7461;52.440;13.540;2023-12-07T10:07:05;61.80;;;44.58;;
14738;SDS011;7461;52.440;13.540;2023-12-07T10:13:04;52.08;;;42.72;;
14738;SDS011;7461;52.440;13.540;2023-12-07T10:15:43;56.30;;;43.03;;
14738;SDS011;7461;52.440;13.540;2023-12-07T10:18:29;49.33;;;43.10;;
14738;SDS011;7461;52.440;13.540;2023-12-07T10:21:00;57.58;;;42.90;;
14738;SDS011;7461;52.440;13.540;2023-12-07T10:23:33;50.47;;;42.33;;
14738;SDS011;7461;52.440;13.540;2023-12-07T10:26:05;54.97;;;44.03;;
14738;SDS011;7461;52.440;13.540;2023-12-07T10:28:41;57.25;;;42.20;;
14738;SDS011;7461;52.440;13.540;2023-12-07T10:31:17;54.67;;;41.28;;
14738;SDS011;7461;52.440;13.540;2023-12-07T10:34:07;55.78;;;43.50;;
14738;SDS011;7461;52.440;13.540;2023-12-07T10:36:41;50.13;;;43.22;;
14738;SDS011;7461;52.440;13.540;2023-12-07T10:39:10;64.00;;;44.70;;
14738;SDS011;7461;52.440;13.540;2023-12-07T10:41:38;58.45;;;45.38;;
14738;SDS011;7461;52.440;13.540;2023-12-07T10:44:30;62.53;;;45.35;;
14738;SDS011;7461;52.440;13.540;2023-12-07T10:47:19;59.72;;;44.63;;
14738;SDS011;7461;52.440;13.540;2023-12-07T10:49:51;57.63;;;44.20;;
14738;SDS011;7461;52.440;13.540;2023-12-07T10:52:51;59.80;;;43.92;;
14738;SDS011;7461;52.440;13.540;2023-12-07T10:55:33;52.72;;;41.85;;
14738;SDS011;7461;52.440;13.540;2023-12-07T10:58:18;49.20;;;37.10;;
14738;SDS011;7461;52.440;13.540;2023-12-07T11:01:03;54.58;;;40.95;;
14738;SDS011;7461;52.440;13.540;2023-12-07T11:03:41;55.75;;;41.30;;
14738;SDS011;7461;52.440;13.540;2023-12-07T11:06:14;61.63;;;46.05;;
14738;SDS011;7461;52.440;13.540;2023-12-07T11:08:50;72.28;;;44.90;;
14738;SDS011;7461;52.440;13.540;2023-12-07T11:11:28;63.35;;;43.10;;
14738;SDS011;7461;52.440;13.540;2023-12-07T11:14:13;58.58;;;43.55;;
14738;SDS011;7461;52.440;13.540;2023-12-07T11:16:58;54.97;;;42.58;;
14738;SDS011;7461;52.440;13.540;2023-12-07T11:19:54;52.75;;;42.95;;
14738;SDS011;7461;52.440;13.540;2023-12-07T11:23:06;64.18;;;42.75;;
14738;SDS011;7461;52.440;13.540;2023-12-07T11:25:20;52.08;;;39.40;;
14738;SDS011;7461;52.440;13.540;2023-12-07T11:27:59;52.67;;;38.78;;
14738;SDS011;7461;52.440;13.540;2023-12-07T11:30:34;62.42;;;43.63;;
14738;SDS011;7461;52.440;13.540;2023-12-07T11:33:11;51.22;;;42.20;;
14738;SDS011;7461;52.440;13.540;2023-12-07T11:38:36;51.20;;;39.47;;
14738;SDS011;7461;52.440;13.540;2023-12-07T11:41:04;49.83;;;40.63;;
14738;SDS011;7461;52.440;13.540;2023-12-07T11:46:22;44.28;;;36.45;;
14738;SDS011;7461;52.440;13.540;2023-12-07T11:48:51;48.97;;;38.05;;
14738;SDS011;7461;52.440;13.540;2023-12-07T11:51:18;45.35;;;37.90;;
14738;SDS011;7461;52.440;13.540;2023-12-07T11:53:47;41.60;;;36.97;;
14738;SDS011;7461;52.440;13.540;2023-12-07T11:56:15;53.95;;;42.80;;
14738;SDS011;7461;52.440;13.540;2023-12-07T11:58:46;48.28;;;41.17;;
14738;SDS011;7461;52.440;13.540;2023-12-07T12:01:14;52.65;;;41.13;;
14738;SDS011;7461;52.440;13.540;2023-12-07T12:03:42;53.65;;;42.95;;
14738;SDS011;7461;52.440;13.540;2023-12-07T12:06:09;50.25;;;43.75;;
14738;SDS011;7461;52.440;13.540;2023-12-07T12:08:38;51.67;;;43.30;;
14738;SDS011;7461;52.440;13.540;2023-12-07T12:11:09;50.70;;;41.72;;
14738;SDS011;7461;52.440;13.540;2023-12-07T12:13:37;48.45;;;40.40;;
14738;SDS011;7461;52.440;13.540;2023-12-07T12:16:05;48.53;;;42.08;;
14738;SDS011;7461;52.440;13.540;2023-12-07T12:18:33;48.20;;;43.08;;
14738;SDS011;7461;52.440;13.540;2023-12-07T12:21:01;51.88;;;45.33;;
14738;SDS011;7461;52.440;13.540;2023-12-07T12:23:28;49.30;;;44.00;;
14738;SDS011;7461;52.440;13.540;2023-12-07T12:25:55;49.50;;;42.55;;
14738;SDS011;7461;52.440;13.540;2023-12-07T12:28:25;48.53;;;42.92;;
14738;SDS011;7461;52.440;13.540;2023-12-07T12:30:54;51.38;;;43.15;;
14738;SDS011;7461;52.440;13.540;2023-12-07T12:33:21;48.47;;;42.72;;
14738;SDS011;7461;52.440;13.540;2023-12-07T12:35:59;45.35;;;39.55;;
14738;SDS011;7461;52.440;13.540;2023-12-07T12:38:27;49.72;;;44.38;;
14738;SDS011;7461;52.440;13.540;2023-12-07T12:40:54;54.25;;;45.45;;
14738;SDS011;7461;52.440;13.540;2023-12-07T12:43:22;48.13;;;43.10;;
14738;SDS011;7461;52.440;13.540;2023-12-07T12:45:50;50.47;;;45.22;;
14738;SDS011;7461;52.440;13.540;2023-12-07T12:48:18;55.45;;;43.72;;
14738;SDS011;7461;52.440;13.540;2023-12-07T12:50:45;52.13;;;44.55;;
14738;SDS011;7461;52.440;13.540;2023-12-07T12:53:13;53.25;;;47.17;;
14738;SDS011;7461;52.440;13.540;2023-12-07T12:55:41;51.80;;;46.53;;
14738;SDS011;7461;52.440;13.540;2023-12-07T12:58:09;49.03;;;43.92;;
14738;SDS011;7461;52.440;13.540;2023-12-07T13:00:37;49.72;;;43.83;;
14738;SDS011;7461;52.440;13.540;2023-12-07T13:03:07;53.75;;;44.03;;
14738;SDS011;7461;52.440;13.540;2023-12-07T13:05:37;53.70;;;47.97;;
14738;SDS011;7461;52.440;13.540;2023-12-07T13:08:04;51.08;;;44.50;;
14738;SDS011;7461;52.440;13.540;2023-12-07T13:10:33;53.30;;;47.65;;
14738;SDS011;7461;52.440;13.540;2023-12-07T13:13:00;55.03;;;48.75;;
14738;SDS011;7461;52.440;13.540;2023-12-07T13:15:29;64.15;;;49.50;;
14738;SDS011;7461;52.440;13.540;2023-12-07T13:17:58;58.85;;;49.13;;
14738;SDS011;7461;52.440;13.540;2023-12-07T13:20:27;63.75;;;52.00;;
14738;SDS011;7461;52.440;13.540;2023-12-07T13:22:55;56.70;;;49.40;;
14738;SDS011;7461;52.440;13.540;2023-12-07T13:25:23;62.70;;;51.58;;
14738;SDS011;7461;52.440;13.540;2023-12-07T13:27:51;57.70;;;51.35;;
14738;SDS011;7461;52.440;13.540;2023-12-07T13:30:19;61.28;;;53.88;;
14738;SDS011;7461;52.440;13.540;2023-12-07T13:32:47;60.58;;;51.10;;
14738;SDS011;7461;52.440;13.540;2023-12-07T13:35:14;62.65;;;54.58;;
14738;SDS011;7461;52.440;13.540;2023-12-07T13:37:43;62.95;;;55.05;;
14738;SDS011;7461;52.440;13.540;2023-12-07T13:40:15;60.55;;;54.13;;
14738;SDS011;7461;52.440;13.540;2023-12-07T13:42:44;70.18;;;59.75;;
14738;SDS011;7461;52.440;13.540;2023-12-07T13:45:15;57.00;;;50.67;;
14738;SDS011;7461;52.440;13.540;2023-12-07T13:47:42;65.38;;;55.05;;
14738;SDS011;7461;52.440;13.540;2023-12-07T13:50:12;63.15;;;55.03;;
14738;SDS011;7461;52.440;13.540;2023-12-07T13:52:41;63.10;;;56.30;;
14738;SDS011;7461;52.440;13.540;2023-12-07T13:55:10;65.70;;;55.90;;
14738;SDS011;7461;52.440;13.540;2023-12-07T13:57:37;69.50;;;58.53;;
14738;SDS011;7461;52.440;13.540;2023-12-07T14:00:05;66.53;;;57.55;;
14738;SDS011;7461;52.440;13.540;2023-12-07T14:02:37;68.35;;;57.90;;
14738;SDS011;7461;52.440;13.540;2023-12-07T14:05:07;65.32;;;57.90;;
14738;SDS011;7461;52.440;13.540;2023-12-07T14:07:34;67.05;;;58.55;;
14738;SDS011;7461;52.440;13.540;2023-12-07T14:10:01;72.45;;;61.72;;
14738;SDS011;7461;52.440;13.540;2023-12-07T14:12:30;66.63;;;59.67;;
14738;SDS011;7461;52.440;13.540;2023-12-07T14:14:58;69.30;;;60.25;;
14738;SDS011;7461;52.440;13.540;2023-12-07T14:17:27;71.72;;;63.25;;
14738;SDS011;7461;52.440;13.540;2023-12-07T14:20:01;66.00;;;58.67;;
14738;SDS011;7461;52.440;13.540;2023-12-07T14:22:29;66.80;;;59.25;;
14738;SDS011;7461;52.440;13.540;2023-12-07T14:25:00;66.88;;;59.60;;
14738;SDS011;7461;52.440;13.540;2023-12-07T14:27:28;74.43;;;59.17;;
14738;SDS011;7461;52.440;13.540;2023-12-07T14:29:56;80.30;;;64.25;;
14738;SDS011;7461;52.440;13.540;2023-12-07T14:32:24;76.40;;;61.88;;
14738;SDS011;7461;52.440;13.540;2023-12-07T14:34:55;72.18;;;56.17;;
14738;SDS011;7461;52.440;13.540;2023-12-07T14:37:36;75.88;;;61.92;;
14738;SDS011;7461;52.440;13.540;2023-12-07T14:40:14;79.95;;;62.35;;
14738;SDS011;7461;52.440;13.540;2023-12-07T14:42:42;75.75;;;61.92;;
14738;SDS011;7461;52.440;13.540;2023-12-07T14:45:11;77.28;;;60.40;;
14738;SDS011;7461;52.440;13.540;2023-12-07T14:47:40;81.97;;;62.67;;
14738;SDS011;7461;52.440;13.540;2023-12-07T14:50:07;73.28;;;60.47;;
14738;SDS011;7461;52.440;13.540;2023-12-07T14:52:35;79.05;;;61.17;;
14738;SDS011;7461;52.440;13.540;2023-12-07T14:55:03;77.47;;;61.30;;
14738;SDS011;7461;52.440;13.540;2023-12-07T14:57:35;73.47;;;58.00;;
14738;SDS011;7461;52.440;13.540;2023-12-07T15:00:03;82.43;;;60.55;;
14738;SDS011;7461;52.440;13.540;2023-12-07T15:02:32;86.05;;;62.10;;
14738;SDS011;7461;52.440;13.540;2023-12-07T15:04:59;95.25;;;61.55;;
14738;SDS011;7461;52.440;13.540;2023-12-07T15:07:26;88.00;;;60.92;;
14738;SDS011;7461;52.440;13.540;2023-12-07T15:09:54;78.25;;;58.80;;
14738;SDS011;7461;52.440;13.540;2023-12-07T15:12:22;80.97;;;61.83;;
14738;SDS011;7461;52.440;13.540;2023-12-07T15:14:50;80.90;;;58.83;;
14738;SDS011;7461;52.440;13.540;2023-12-07T15:17:21;84.30;;;60.97;;
14738;SDS011;7461;52.440;13.540;2023-12-07T15:20:01;88.70;;;60.13;;
14738;SDS011;7461;52.440;13.540;2023-12-07T15:22:55;83.38;;;56.55;;
14738;SDS011;7461;52.440;13.540;2023-12-07T15:26:19;88.43;;;57.72;;
14738;SDS011;7461;52.440;13.540;2023-12-07T15:28:41;89.95;;;54.83;;
14738;SDS011;7461;52.440;13.540;2023-12-07T15:31:08;86.43;;;58.55;;
14738;SDS011;7461;52.440;13.540;2023-12-07T15:33:38;82.07;;;58.33;;
14738;SDS011;7461;52.440;13.540;2023-12-07T15:36:17;84.32;;;57.15;;
14738;SDS011;7461;52.440;13.540;2023-12-07T15:38:44;87.57;;;56.65;;
14738;SDS011;7461;52.440;13.540;2023-12-07T15:41:12;85.93;;;56.08;;
14738;SDS011;7461;52.440;13.540;2023-12-07T15:43:41;80.47;;;58.35;;
14738;SDS011;7461;52.440;13.540;2023-12-07T15:46:13;95.35;;;60.60;;
14738;SDS011;7461;52.440;13.540;2023-12-07T15:48:40;85.95;;;58.13;;
14738;SDS011;7461;52.440;13.540;2023-12-07T15:51:07;88.55;;;59.33;;
14738;SDS011;7461;52.440;13.540;2023-12-07T15:53:44;86.38;;;56.42;;
14738;SDS011;7461;52.440;13.540;2023-12-07T15:56:12;86.00;;;53.45;;
14738;SDS011;7461;52.440;13.540;2023-12-07T15:58:39;96.80;;;55.08;;
14738;SDS011;7461;52.440;13.540;2023-12-07T16:01:06;77.65;;;52.65;;
14738;SDS011;7461;52.440;13.540;2023-12-07T16:03:35;92.72;;;51.13;;
14738;SDS011;7461;52.440;13.540;2023-12-07T16:06:03;97.78;;;56.47;;
14738;SDS011;7461;52.440;13.540;2023-12-07T16:08:30;93.25;;;52.00;;
14738;SDS011;7461;52.440;13.540;2023-12-07T16:11:00;92.97;;;52.67;;
14738;SDS011;7461;52.440;13.540;2023-12-07T16:13:27;97.85;;;52.78;;
14738;SDS011;7461;52.440;13.540;2023-12-07T16:15:55;103.72;;;51.17;;
14738;SDS011;7461;52.440;13.540;2023-12-07T16:18:22;103.25;;;53.33;;
14738;SDS011;7461;52.440;13.540;2023-12-07T16:20:50;97.50;;;49.40;;
14738;SDS011;7461;52.440;13.540;2023-12-07T16:23:20;80.35;;;44.92;;
14738;SDS011;7461;52.440;13.540;2023-12-07T16:25:48;89.70;;;43.50;;
14738;SDS011;7461;52.440;13.540;2023-12-07T16:28:21;77.70;;;42.90;;
14738;SDS011;7461;52.440;13.540;2023-12-07T16:30:49;86.00;;;42.35;;
14738;SDS011;7461;52.440;13.540;2023-12-07T16:33:16;70.43;;;40.63;;
14738;SDS011;7461;52.440;13.540;2023-12-07T16:35:47;73.22;;;45.85;;
14738;SDS011;7461;52.440;13.540;2023-12-07T16:38:16;90.88;;;51.35;;
14738;SDS011;7461;52.440;13.540;2023-12-07T16:40:43;73.68;;;47.63;;
14738;SDS011;7461;52.440;13.540;2023-12-07T16:43:11;75.82;;;44.10;;
14738;SDS011;7461;52.440;13.540;2023-12-07T16:45:43;76.07;;;45.03;;
14738;SDS011;7461;52.440;13.540;2023-12-07T16:48:18;65.50;;;40.30;;
14738;SDS011;7461;52.440;13.540;2023-12-07T16:51:00;70.75;;;42.38;;
14738;SDS011;7461;52.440;13.540;2023-12-07T16:53:42;61.75;;;38.33;;
14738;SDS011;7461;52.440;13.540;2023-12-07T16:56:12;68.07;;;40.97;;
14738;SDS011;7461;52.440;13.540;2023-12-07T16:58:52;66.88;;;40.05;;
14738;SDS011;7461;52.440;13.540;2023-12-07T17:04:25;78.22;;;42.42;;
14738;SDS011;7461;52.440;13.540;2023-12-07T17:07:00;77.90;;;43.13;;
14738;SDS011;7461;52.440;13.540;2023-12-07T17:09:51;81.10;;;44.25;;
14738;SDS011;7461;52.440;13.540;2023-12-07T17:12:33;65.75;;;38.35;;
14738;SDS011;7461;52.440;13.540;2023-12-07T17:24:36;54.47;;;35.08;;
14738;SDS011;7461;52.440;13.540;2023-12-07T17:27:09;58.65;;;35.28;;
14738;SDS011;7461;52.440;13.540;2023-12-07T17:29:51;60.63;;;37.03;;
14738;SDS011;7461;52.440;13.540;2023-12-07T17:32:39;50.70;;;32.95;;
14738;SDS011;7461;52.440;13.540;2023-12-07T17:35:39;51.90;;;32.70;;
14738;SDS011;7461;52.440;13.540;2023-12-07T17:38:33;63.55;;;32.25;;
14738;SDS011;7461;52.440;13.540;2023-12-07T17:41:11;54.17;;;32.72;;
14738;SDS011;7461;52.440;13.540;2023-12-07T17:43:53;60.17;;;34.92;;
14738;SDS011;7461;52.440;13.540;2023-12-07T17:46:30;58.58;;;35.33;;
14738;SDS011;7461;52.440;13.540;2023-12-07T17:49:13;53.13;;;35.47;;
14738;SDS011;7461;52.440;13.540;2023-12-07T17:52:11;49.45;;;31.40;;
14738;SDS011;7461;52.440;13.540;2023-12-07T18:00:28;60.05;;;35.20;;
14738;SDS011;7461;52.440;13.540;2023-12-07T18:02:59;56.92;;;33.30;;
14738;SDS011;7461;52.440;13.540;2023-12-07T18:05:29;52.05;;;32.28;;
14738;SDS011;7461;52.440;13.540;2023-12-07T18:07:56;69.20;;;41.83;;
14738;SDS011;7461;52.440;13.540;2023-12-07T18:10:25;57.55;;;37.95;;
14738;SDS011;7461;52.440;13.540;2023-12-07T18:12:53;63.05;;;37.25;;
14738;SDS011;7461;52.440;13.540;2023-12-07T18:15:23;74.15;;;38.60;;
14738;SDS011;7461;52.440;13.540;2023-12-07T18:17:54;57.35;;;34.20;;
14738;SDS011;7461;52.440;13.540;2023-12-07T18:20:25;66.50;;;40.38;;
14738;SDS011;7461;52.440;13.540;2023-12-07T18:22:53;66.50;;;39.10;;
14738;SDS011;7461;52.440;13.540;2023-12-07T18:25:20;66.80;;;38.80;;
14738;SDS011;7461;52.440;13.540;2023-12-07T18:27:50;81.97;;;42.72;;
14738;SDS011;7461;52.440;13.540;2023-12-07T18:30:20;62.78;;;37.05;;
14738;SDS011;7461;52.440;13.540;2023-12-07T18:32:50;66.13;;;39.17;;
14738;SDS011;7461;52.440;13.540;2023-12-07T18:35:18;74.28;;;43.42;;
14738;SDS011;7461;52.440;13.540;2023-12-07T18:37:46;89.30;;;47.80;;
14738;SDS011;7461;52.440;13.540;2023-12-07T18:40:14;80.13;;;44.22;;
14738;SDS011;7461;52.440;13.540;2023-12-07T18:42:46;70.43;;;44.00;;